sensor_id;sensor_type;location;lat;lon;timestamp;P1;durP1;ratioP1;P2;durP2;ratioP2
39094;SDS011;24840;47.508;19.376;2023-08-06T00:00:08;22.10;;;19.52;;
39094;SDS011;24840;47.508;19.376;2023-08-06T00:02:34;19.65;;;17.58;;
39094;SDS011;24840;47.508;19.376;2023-08-06T00:05:00;19.70;;;17.60;;
39094;SDS011;24840;47.508;19.376;2023-08-06T00:07:26;23.30;;;19.27;;
39094;SDS011;24840;47.508;19.376;2023-08-06T00:09:52;20.65;;;18.55;;
39094;SDS011;24840;47.508;19.376;2023-08-06T00:12:18;22.17;;;18.48;;
39094;SDS011;24840;47.508;19.376;2023-08-06T00:14:43;23.38;;;17.63;;
39094;SDS011;24840;47.508;19.376;2023-08-06T00:17:10;25.90;;;20.00;;
39094;SDS011;24840;47.508;19.376;2023-08-06T00:19:35;29.55;;;18.77;;
39094;SDS011;24840;47.508;19.376;2023-08-06T00:22:01;24.15;;;19.15;;
39094;SDS011;24840;47.508;19.376;2023-08-06T00:24:27;22.30;;;19.92;;
39094;SDS011;24840;47.508;19.376;2023-08-06T00:26:53;19.80;;;17.58;;
39094;SDS011;24840;47.508;19.376;2023-08-06T00:29:18;22.80;;;18.13;;
39094;SDS011;24840;47.508;19.376;2023-08-06T00:31:44;23.08;;;18.27;;
39094;SDS011;24840;47.508;19.376;2023-08-06T00:34:10;23.70;;;19.02;;
39094;SDS011;24840;47.508;19.376;2023-08-06T00:36:36;20.65;;;16.35;;
39094;SDS011;24840;47.508;19.376;2023-08-06T00:39:01;34.05;;;18.13;;
39094;SDS011;24840;47.508;19.376;2023-08-06T00:41:27;23.30;;;18.65;;
39094;SDS011;24840;47.508;19.376;2023-08-06T00:43:53;19.52;;;17.63;;
39094;SDS011;24840;47.508;19.376;2023-08-06T00:46:19;24.92;;;17.70;;
39094;SDS011;24840;47.508;19.376;2023-08-06T00:48:46;19.00;;;17.05;;
39094;SDS011;24840;47.508;19.376;2023-08-06T00:51:12;22.90;;;18.38;;
39094;SDS011;24840;47.508;19.376;2023-08-06T00:53:39;17.33;;;14.40;;
39094;SDS011;24840;47.508;19.376;2023-08-06T00:56:05;18.13;;;16.23;;
39094;SDS011;24840;47.508;19.376;2023-08-06T00:58:32;22.30;;;15.32;;
39094;SDS011;24840;47.508;19.376;2023-08-06T01:00:59;17.65;;;15.68;;
39094;SDS011;24840;47.508;19.376;2023-08-06T01:03:25;19.38;;;15.27;;
39094;SDS011;24840;47.508;19.376;2023-08-06T01:05:51;18.70;;;15.13;;
39094;SDS011;24840;47.508;19.376;2023-08-06T01:08:24;16.95;;;14.25;;
39094;SDS011;24840;47.508;19.376;2023-08-06T01:16:33;15.57;;;13.98;;
39094;SDS011;24840;47.508;19.376;2023-08-06T01:19:00;16.85;;;15.25;;
39094;SDS011;24840;47.508;19.376;2023-08-06T01:21:26;18.98;;;16.23;;
39094;SDS011;24840;47.508;19.376;2023-08-06T01:23:51;16.13;;;14.57;;
39094;SDS011;24840;47.508;19.376;2023-08-06T01:31:14;18.95;;;14.13;;
39094;SDS011;24840;47.508;19.376;2023-08-06T01:33:43;15.65;;;13.48;;
39094;SDS011;24840;47.508;19.376;2023-08-06T01:36:12;20.25;;;15.45;;
39094;SDS011;24840;47.508;19.376;2023-08-06T01:38:44;19.52;;;14.35;;
39094;SDS011;24840;47.508;19.376;2023-08-06T01:41:10;15.73;;;11.57;;
39094;SDS011;24840;47.508;19.376;2023-08-06T01:43:35;15.75;;;10.75;;
39094;SDS011;24840;47.508;19.376;2023-08-06T01:46:01;10.57;;;8.65;;
39094;SDS011;24840;47.508;19.376;2023-08-06T01:48:27;10.25;;;7.25;;
39094;SDS011;24840;47.508;19.376;2023-08-06T01:50:52;11.13;;;6.50;;
39094;SDS011;24840;47.508;19.376;2023-08-06T01:53:19;8.27;;;6.63;;
39094;SDS011;24840;47.508;19.376;2023-08-06T01:55:48;6.97;;;6.28;;
39094;SDS011;24840;47.508;19.376;2023-08-06T01:58:14;9.90;;;6.88;;
39094;SDS011;24840;47.508;19.376;2023-08-06T02:00:40;6.88;;;5.80;;
39094;SDS011;24840;47.508;19.376;2023-08-06T02:03:06;6.70;;;6.10;;
39094;SDS011;24840;47.508;19.376;2023-08-06T02:05:32;6.68;;;6.07;;
39094;SDS011;24840;47.508;19.376;2023-08-06T02:07:58;9.55;;;6.07;;
39094;SDS011;24840;47.508;19.376;2023-08-06T02:10:24;8.02;;;5.50;;
39094;SDS011;24840;47.508;19.376;2023-08-06T02:12:49;6.95;;;5.75;;
39094;SDS011;24840;47.508;19.376;2023-08-06T02:15:15;6.78;;;6.15;;
39094;SDS011;24840;47.508;19.376;2023-08-06T02:17:41;7.32;;;5.72;;
39094;SDS011;24840;47.508;19.376;2023-08-06T02:20:07;5.28;;;4.57;;
39094;SDS011;24840;47.508;19.376;2023-08-06T02:22:33;4.53;;;4.13;;
39094;SDS011;24840;47.508;19.376;2023-08-06T02:24:58;5.80;;;4.80;;
39094;SDS011;24840;47.508;19.376;2023-08-06T02:27:24;6.47;;;5.15;;
39094;SDS011;24840;47.508;19.376;2023-08-06T02:29:50;13.13;;;5.32;;
39094;SDS011;24840;47.508;19.376;2023-08-06T02:32:16;5.70;;;4.90;;
39094;SDS011;24840;47.508;19.376;2023-08-06T02:34:41;9.05;;;4.90;;
39094;SDS011;24840;47.508;19.376;2023-08-06T02:37:07;10.45;;;4.97;;
39094;SDS011;24840;47.508;19.376;2023-08-06T02:39:33;18.40;;;5.60;;
39094;SDS011;24840;47.508;19.376;2023-08-06T02:41:59;6.40;;;5.55;;
39094;SDS011;24840;47.508;19.376;2023-08-06T02:44:28;8.20;;;4.72;;
39094;SDS011;24840;47.508;19.376;2023-08-06T02:46:53;6.57;;;4.90;;
39094;SDS011;24840;47.508;19.376;2023-08-06T02:49:19;4.80;;;4.40;;
39094;SDS011;24840;47.508;19.376;2023-08-06T02:51:45;6.63;;;4.50;;
39094;SDS011;24840;47.508;19.376;2023-08-06T02:54:11;6.85;;;4.47;;
39094;SDS011;24840;47.508;19.376;2023-08-06T02:56:36;4.35;;;3.72;;
39094;SDS011;24840;47.508;19.376;2023-08-06T02:59:03;7.22;;;4.43;;
39094;SDS011;24840;47.508;19.376;2023-08-06T03:01:29;4.63;;;3.78;;
39094;SDS011;24840;47.508;19.376;2023-08-06T03:03:54;6.05;;;3.78;;
39094;SDS011;24840;47.508;19.376;2023-08-06T03:06:20;3.35;;;3.05;;
39094;SDS011;24840;47.508;19.376;2023-08-06T03:08:46;3.13;;;2.75;;
39094;SDS011;24840;47.508;19.376;2023-08-06T03:11:12;6.40;;;3.13;;
39094;SDS011;24840;47.508;19.376;2023-08-06T03:13:37;7.18;;;3.97;;
39094;SDS011;24840;47.508;19.376;2023-08-06T03:16:03;4.55;;;3.13;;
39094;SDS011;24840;47.508;19.376;2023-08-06T03:18:29;7.35;;;3.50;;
39094;SDS011;24840;47.508;19.376;2023-08-06T03:20:55;4.25;;;3.25;;
39094;SDS011;24840;47.508;19.376;2023-08-06T03:23:20;5.70;;;3.65;;
39094;SDS011;24840;47.508;19.376;2023-08-06T03:25:46;7.35;;;4.10;;
39094;SDS011;24840;47.508;19.376;2023-08-06T03:28:12;6.30;;;3.97;;
39094;SDS011;24840;47.508;19.376;2023-08-06T03:30:37;5.05;;;4.63;;
39094;SDS011;24840;47.508;19.376;2023-08-06T03:33:03;8.30;;;5.20;;
39094;SDS011;24840;47.508;19.376;2023-08-06T03:35:29;5.65;;;5.03;;
39094;SDS011;24840;47.508;19.376;2023-08-06T03:37:55;14.02;;;5.18;;
39094;SDS011;24840;47.508;19.376;2023-08-06T03:40:20;5.95;;;5.35;;
39094;SDS011;24840;47.508;19.376;2023-08-06T03:42:46;10.23;;;4.88;;
39094;SDS011;24840;47.508;19.376;2023-08-06T03:45:12;6.47;;;5.88;;
39094;SDS011;24840;47.508;19.376;2023-08-06T03:47:37;6.80;;;6.20;;
39094;SDS011;24840;47.508;19.376;2023-08-06T03:50:03;6.57;;;5.97;;
39094;SDS011;24840;47.508;19.376;2023-08-06T03:52:29;7.97;;;7.22;;
39094;SDS011;24840;47.508;19.376;2023-08-06T03:54:55;8.82;;;6.13;;
39094;SDS011;24840;47.508;19.376;2023-08-06T03:57:21;8.85;;;7.30;;
39094;SDS011;24840;47.508;19.376;2023-08-06T03:59:46;7.28;;;6.57;;
39094;SDS011;24840;47.508;19.376;2023-08-06T04:02:12;7.60;;;6.90;;
39094;SDS011;24840;47.508;19.376;2023-08-06T04:04:38;7.50;;;5.93;;
39094;SDS011;24840;47.508;19.376;2023-08-06T04:07:04;6.60;;;6.00;;
39094;SDS011;24840;47.508;19.376;2023-08-06T04:09:29;6.43;;;5.82;;
39094;SDS011;24840;47.508;19.376;2023-08-06T04:11:55;6.63;;;5.88;;
39094;SDS011;24840;47.508;19.376;2023-08-06T04:14:23;8.93;;;6.38;;
39094;SDS011;24840;47.508;19.376;2023-08-06T04:16:49;7.13;;;6.15;;
39094;SDS011;24840;47.508;19.376;2023-08-06T04:19:15;6.80;;;5.93;;
39094;SDS011;24840;47.508;19.376;2023-08-06T04:21:40;7.47;;;5.32;;
39094;SDS011;24840;47.508;19.376;2023-08-06T04:24:06;6.93;;;5.18;;
39094;SDS011;24840;47.508;19.376;2023-08-06T04:26:32;4.28;;;3.85;;
39094;SDS011;24840;47.508;19.376;2023-08-06T04:28:57;4.57;;;4.03;;
39094;SDS011;24840;47.508;19.376;2023-08-06T04:31:23;6.40;;;4.93;;
39094;SDS011;24840;47.508;19.376;2023-08-06T04:33:49;5.68;;;5.15;;
39094;SDS011;24840;47.508;19.376;2023-08-06T04:36:15;7.05;;;6.00;;
39094;SDS011;24840;47.508;19.376;2023-08-06T04:38:40;5.93;;;5.43;;
39094;SDS011;24840;47.508;19.376;2023-08-06T04:41:10;6.53;;;5.93;;
39094;SDS011;24840;47.508;19.376;2023-08-06T04:43:36;6.57;;;5.90;;
39094;SDS011;24840;47.508;19.376;2023-08-06T04:46:02;7.93;;;5.45;;
39094;SDS011;24840;47.508;19.376;2023-08-06T04:48:28;5.03;;;4.63;;
39094;SDS011;24840;47.508;19.376;2023-08-06T04:50:53;5.93;;;4.05;;
39094;SDS011;24840;47.508;19.376;2023-08-06T04:53:19;4.78;;;4.28;;
39094;SDS011;24840;47.508;19.376;2023-08-06T04:55:45;6.13;;;4.22;;
39094;SDS011;24840;47.508;19.376;2023-08-06T04:58:11;7.13;;;4.60;;
39094;SDS011;24840;47.508;19.376;2023-08-06T05:00:38;4.10;;;3.67;;
39094;SDS011;24840;47.508;19.376;2023-08-06T05:03:04;8.80;;;4.65;;
39094;SDS011;24840;47.508;19.376;2023-08-06T05:05:30;5.45;;;4.95;;
39094;SDS011;24840;47.508;19.376;2023-08-06T05:07:56;5.50;;;3.97;;
39094;SDS011;24840;47.508;19.376;2023-08-06T05:10:25;6.75;;;4.60;;
39094;SDS011;24840;47.508;19.376;2023-08-06T05:12:51;7.35;;;5.25;;
39094;SDS011;24840;47.508;19.376;2023-08-06T05:15:17;7.03;;;5.38;;
39094;SDS011;24840;47.508;19.376;2023-08-06T05:17:43;4.65;;;4.07;;
39094;SDS011;24840;47.508;19.376;2023-08-06T05:20:09;4.72;;;4.15;;
39094;SDS011;24840;47.508;19.376;2023-08-06T05:22:35;5.22;;;4.72;;
39094;SDS011;24840;47.508;19.376;2023-08-06T05:25:01;4.32;;;3.75;;
39094;SDS011;24840;47.508;19.376;2023-08-06T05:27:27;4.90;;;3.97;;
39094;SDS011;24840;47.508;19.376;2023-08-06T05:29:54;6.30;;;4.85;;
39094;SDS011;24840;47.508;19.376;2023-08-06T05:32:23;7.72;;;4.53;;
39094;SDS011;24840;47.508;19.376;2023-08-06T05:34:49;5.53;;;4.38;;
39094;SDS011;24840;47.508;19.376;2023-08-06T05:37:15;5.93;;;5.32;;
39094;SDS011;24840;47.508;19.376;2023-08-06T05:39:41;6.78;;;5.00;;
39094;SDS011;24840;47.508;19.376;2023-08-06T05:42:06;5.97;;;5.07;;
39094;SDS011;24840;47.508;19.376;2023-08-06T05:44:32;5.10;;;4.57;;
39094;SDS011;24840;47.508;19.376;2023-08-06T05:46:58;4.50;;;4.07;;
39094;SDS011;24840;47.508;19.376;2023-08-06T05:49:23;3.85;;;2.97;;
39094;SDS011;24840;47.508;19.376;2023-08-06T05:51:49;3.17;;;2.60;;
39094;SDS011;24840;47.508;19.376;2023-08-06T05:54:15;3.10;;;2.10;;
39094;SDS011;24840;47.508;19.376;2023-08-06T05:56:40;3.60;;;1.63;;
39094;SDS011;24840;47.508;19.376;2023-08-06T05:59:06;2.95;;;1.92;;
39094;SDS011;24840;47.508;19.376;2023-08-06T06:01:32;3.03;;;1.67;;
39094;SDS011;24840;47.508;19.376;2023-08-06T06:03:57;4.25;;;1.60;;
39094;SDS011;24840;47.508;19.376;2023-08-06T06:06:23;1.90;;;1.20;;
39094;SDS011;24840;47.508;19.376;2023-08-06T06:08:49;5.03;;;1.85;;
39094;SDS011;24840;47.508;19.376;2023-08-06T06:11:15;2.70;;;1.35;;
39094;SDS011;24840;47.508;19.376;2023-08-06T06:13:40;3.17;;;1.25;;
39094;SDS011;24840;47.508;19.376;2023-08-06T06:16:06;1.17;;;1.08;;
39094;SDS011;24840;47.508;19.376;2023-08-06T06:18:32;1.75;;;1.00;;
39094;SDS011;24840;47.508;19.376;2023-08-06T06:20:57;2.88;;;0.98;;
39094;SDS011;24840;47.508;19.376;2023-08-06T06:23:23;5.13;;;1.10;;
39094;SDS011;24840;47.508;19.376;2023-08-06T06:25:49;3.42;;;1.10;;
39094;SDS011;24840;47.508;19.376;2023-08-06T06:28:17;0.88;;;0.63;;
39094;SDS011;24840;47.508;19.376;2023-08-06T06:30:43;2.53;;;0.98;;
39094;SDS011;24840;47.508;19.376;2023-08-06T06:33:08;4.30;;;1.25;;
39094;SDS011;24840;47.508;19.376;2023-08-06T06:35:34;2.08;;;1.10;;
39094;SDS011;24840;47.508;19.376;2023-08-06T06:38:00;2.05;;;0.80;;
39094;SDS011;24840;47.508;19.376;2023-08-06T06:40:27;2.15;;;0.73;;
39094;SDS011;24840;47.508;19.376;2023-08-06T06:42:53;3.28;;;0.80;;
39094;SDS011;24840;47.508;19.376;2023-08-06T06:45:19;1.85;;;0.60;;
39094;SDS011;24840;47.508;19.376;2023-08-06T06:47:44;3.78;;;0.70;;
39094;SDS011;24840;47.508;19.376;2023-08-06T06:50:10;1.17;;;0.65;;
39094;SDS011;24840;47.508;19.376;2023-08-06T06:52:36;1.20;;;0.70;;
39094;SDS011;24840;47.508;19.376;2023-08-06T06:55:02;3.63;;;0.55;;
39094;SDS011;24840;47.508;19.376;2023-08-06T06:57:28;1.17;;;0.70;;
39094;SDS011;24840;47.508;19.376;2023-08-06T06:59:54;1.88;;;0.50;;
39094;SDS011;24840;47.508;19.376;2023-08-06T07:02:19;1.58;;;0.60;;
39094;SDS011;24840;47.508;19.376;2023-08-06T07:04:45;2.58;;;1.13;;
39094;SDS011;24840;47.508;19.376;2023-08-06T07:07:11;1.83;;;1.25;;
39094;SDS011;24840;47.508;19.376;2023-08-06T07:09:37;1.42;;;0.88;;
39094;SDS011;24840;47.508;19.376;2023-08-06T07:12:02;2.70;;;0.90;;
39094;SDS011;24840;47.508;19.376;2023-08-06T07:14:29;0.55;;;0.40;;
39094;SDS011;24840;47.508;19.376;2023-08-06T07:16:54;1.83;;;0.52;;
39094;SDS011;24840;47.508;19.376;2023-08-06T07:19:20;0.82;;;0.32;;
39094;SDS011;24840;47.508;19.376;2023-08-06T07:21:46;0.98;;;0.40;;
39094;SDS011;24840;47.508;19.376;2023-08-06T07:24:12;2.95;;;0.50;;
39094;SDS011;24840;47.508;19.376;2023-08-06T07:26:37;1.27;;;0.30;;
39094;SDS011;24840;47.508;19.376;2023-08-06T07:29:03;0.50;;;0.40;;
39094;SDS011;24840;47.508;19.376;2023-08-06T07:31:29;1.40;;;0.40;;
39094;SDS011;24840;47.508;19.376;2023-08-06T07:33:55;0.20;;;0.20;;
39094;SDS011;24840;47.508;19.376;2023-08-06T07:36:20;1.10;;;0.38;;
39094;SDS011;24840;47.508;19.376;2023-08-06T07:38:46;0.40;;;0.30;;
39094;SDS011;24840;47.508;19.376;2023-08-06T07:41:14;1.48;;;0.47;;
39094;SDS011;24840;47.508;19.376;2023-08-06T07:43:40;0.20;;;0.13;;
39094;SDS011;24840;47.508;19.376;2023-08-06T07:46:07;0.93;;;0.20;;
39094;SDS011;24840;47.508;19.376;2023-08-06T07:48:33;0.47;;;0.30;;
39094;SDS011;24840;47.508;19.376;2023-08-06T07:50:59;2.28;;;0.20;;
39094;SDS011;24840;47.508;19.376;2023-08-06T07:53:25;0.30;;;0.20;;
39094;SDS011;24840;47.508;19.376;2023-08-06T07:55:57;0.90;;;0.10;;
39094;SDS011;24840;47.508;19.376;2023-08-06T07:58:23;0.93;;;0.55;;
39094;SDS011;24840;47.508;19.376;2023-08-06T08:00:49;0.40;;;0.30;;
39094;SDS011;24840;47.508;19.376;2023-08-06T08:03:15;1.33;;;0.30;;
39094;SDS011;24840;47.508;19.376;2023-08-06T08:05:44;1.23;;;0.20;;
39094;SDS011;24840;47.508;19.376;2023-08-06T08:08:10;0.38;;;0.20;;
39094;SDS011;24840;47.508;19.376;2023-08-06T08:10:36;0.45;;;0.10;;
39094;SDS011;24840;47.508;19.376;2023-08-06T08:13:03;0.73;;;0.20;;
39094;SDS011;24840;47.508;19.376;2023-08-06T08:15:30;0.55;;;0.22;;
39094;SDS011;24840;47.508;19.376;2023-08-06T08:17:57;0.30;;;0.20;;
39094;SDS011;24840;47.508;19.376;2023-08-06T08:20:23;0.40;;;0.20;;
39094;SDS011;24840;47.508;19.376;2023-08-06T08:22:49;1.48;;;0.20;;
39094;SDS011;24840;47.508;19.376;2023-08-06T08:25:15;0.28;;;0.22;;
39094;SDS011;24840;47.508;19.376;2023-08-06T08:27:41;2.60;;;0.20;;
39094;SDS011;24840;47.508;19.376;2023-08-06T08:30:07;1.73;;;0.17;;
39094;SDS011;24840;47.508;19.376;2023-08-06T08:32:33;1.35;;;0.20;;
39094;SDS011;24840;47.508;19.376;2023-08-06T08:34:59;0.10;;;0.10;;
39094;SDS011;24840;47.508;19.376;2023-08-06T08:37:24;0.10;;;0.10;;
39094;SDS011;24840;47.508;19.376;2023-08-06T08:39:50;0.52;;;0.25;;
39094;SDS011;24840;47.508;19.376;2023-08-06T08:42:17;1.08;;;0.20;;
39094;SDS011;24840;47.508;19.376;2023-08-06T08:44:43;0.20;;;0.10;;
39094;SDS011;24840;47.508;19.376;2023-08-06T08:47:10;1.15;;;0.15;;
39094;SDS011;24840;47.508;19.376;2023-08-06T08:49:37;1.00;;;0.30;;
39094;SDS011;24840;47.508;19.376;2023-08-06T08:52:05;0.50;;;0.10;;
39094;SDS011;24840;47.508;19.376;2023-08-06T08:54:35;0.65;;;0.10;;
39094;SDS011;24840;47.508;19.376;2023-08-06T08:57:04;1.10;;;0.10;;
39094;SDS011;24840;47.508;19.376;2023-08-06T08:59:30;0.10;;;0.10;;
39094;SDS011;24840;47.508;19.376;2023-08-06T09:01:58;3.30;;;0.25;;
39094;SDS011;24840;47.508;19.376;2023-08-06T09:04:27;0.28;;;0.13;;
39094;SDS011;24840;47.508;19.376;2023-08-06T09:06:57;0.15;;;0.10;;
39094;SDS011;24840;47.508;19.376;2023-08-06T09:09:34;3.83;;;0.30;;
39094;SDS011;24840;47.508;19.376;2023-08-06T09:12:06;0.10;;;0.10;;
39094;SDS011;24840;47.508;19.376;2023-08-06T09:14:42;0.20;;;0.10;;
39094;SDS011;24840;47.508;19.376;2023-08-06T09:17:08;0.65;;;0.20;;
39094;SDS011;24840;47.508;19.376;2023-08-06T09:19:37;0.45;;;0.20;;
39094;SDS011;24840;47.508;19.376;2023-08-06T09:22:09;0.75;;;0.10;;
39094;SDS011;24840;47.508;19.376;2023-08-06T09:24:38;5.57;;;0.47;;
39094;SDS011;24840;47.508;19.376;2023-08-06T09:27:10;0.55;;;0.20;;
39094;SDS011;24840;47.508;19.376;2023-08-06T09:29:42;0.90;;;0.10;;
39094;SDS011;24840;47.508;19.376;2023-08-06T09:32:10;0.10;;;0.10;;
39094;SDS011;24840;47.508;19.376;2023-08-06T09:34:38;0.65;;;0.22;;
39094;SDS011;24840;47.508;19.376;2023-08-06T09:37:05;0.20;;;0.10;;
39094;SDS011;24840;47.508;19.376;2023-08-06T09:39:33;0.85;;;0.30;;
39094;SDS011;24840;47.508;19.376;2023-08-06T09:41:59;2.85;;;0.45;;
39094;SDS011;24840;47.508;19.376;2023-08-06T09:44:28;0.50;;;0.22;;
39094;SDS011;24840;47.508;19.376;2023-08-06T09:46:55;1.40;;;0.45;;
39094;SDS011;24840;47.508;19.376;2023-08-06T09:49:25;0.32;;;0.20;;
39094;SDS011;24840;47.508;19.376;2023-08-06T09:52:09;2.03;;;0.38;;
39094;SDS011;24840;47.508;19.376;2023-08-06T09:54:37;2.40;;;0.30;;
39094;SDS011;24840;47.508;19.376;2023-08-06T09:57:03;0.20;;;0.10;;
39094;SDS011;24840;47.508;19.376;2023-08-06T09:59:30;1.00;;;0.10;;
39094;SDS011;24840;47.508;19.376;2023-08-06T10:01:57;1.05;;;0.10;;
39094;SDS011;24840;47.508;19.376;2023-08-06T10:04:24;2.25;;;0.30;;
39094;SDS011;24840;47.508;19.376;2023-08-06T10:06:51;1.48;;;0.30;;
39094;SDS011;24840;47.508;19.376;2023-08-06T10:09:18;1.48;;;0.50;;
39094;SDS011;24840;47.508;19.376;2023-08-06T10:11:48;0.35;;;0.20;;
39094;SDS011;24840;47.508;19.376;2023-08-06T10:14:28;0.30;;;0.20;;
39094;SDS011;24840;47.508;19.376;2023-08-06T10:16:57;0.75;;;0.20;;
39094;SDS011;24840;47.508;19.376;2023-08-06T10:19:26;0.40;;;0.20;;
39094;SDS011;24840;47.508;19.376;2023-08-06T10:22:13;1.90;;;0.20;;
39094;SDS011;24840;47.508;19.376;2023-08-06T10:27:30;3.90;;;0.20;;
39094;SDS011;24840;47.508;19.376;2023-08-06T10:32:48;1.67;;;0.20;;
39094;SDS011;24840;47.508;19.376;2023-08-06T10:38:04;0.60;;;0.50;;
39094;SDS011;24840;47.508;19.376;2023-08-06T10:40:30;3.75;;;1.00;;
39094;SDS011;24840;47.508;19.376;2023-08-06T10:43:01;1.13;;;0.75;;
39094;SDS011;24840;47.508;19.376;2023-08-06T10:45:27;1.50;;;1.20;;
39094;SDS011;24840;47.508;19.376;2023-08-06T10:47:55;3.33;;;2.95;;
39094;SDS011;24840;47.508;19.376;2023-08-06T10:50:24;16.40;;;14.82;;
39094;SDS011;24840;47.508;19.376;2023-08-06T10:52:50;2.60;;;2.40;;
39094;SDS011;24840;47.508;19.376;2023-08-06T10:55:26;14.57;;;12.30;;
39094;SDS011;24840;47.508;19.376;2023-08-06T10:57:54;2.08;;;1.23;;
39094;SDS011;24840;47.508;19.376;2023-08-06T11:00:21;13.27;;;10.90;;
39094;SDS011;24840;47.508;19.376;2023-08-06T11:02:48;11.80;;;9.70;;
39094;SDS011;24840;47.508;19.376;2023-08-06T11:05:15;4.65;;;2.28;;
39094;SDS011;24840;47.508;19.376;2023-08-06T11:07:42;2.13;;;1.70;;
39094;SDS011;24840;47.508;19.376;2023-08-06T11:10:08;8.95;;;5.95;;
39094;SDS011;24840;47.508;19.376;2023-08-06T11:12:35;1.90;;;0.32;;
39094;SDS011;24840;47.508;19.376;2023-08-06T11:15:01;25.13;;;14.88;;
39094;SDS011;24840;47.508;19.376;2023-08-06T11:17:28;0.75;;;0.40;;
39094;SDS011;24840;47.508;19.376;2023-08-06T11:19:55;2.97;;;0.60;;
39094;SDS011;24840;47.508;19.376;2023-08-06T11:22:23;5.97;;;3.85;;
39094;SDS011;24840;47.508;19.376;2023-08-06T11:24:49;2.85;;;0.95;;
39094;SDS011;24840;47.508;19.376;2023-08-06T11:27:16;24.95;;;18.33;;
39094;SDS011;24840;47.508;19.376;2023-08-06T11:29:42;6.72;;;4.55;;
39094;SDS011;24840;47.508;19.376;2023-08-06T11:32:09;18.85;;;14.05;;
39094;SDS011;24840;47.508;19.376;2023-08-06T11:34:36;1.67;;;0.40;;
39094;SDS011;24840;47.508;19.376;2023-08-06T11:37:05;0.90;;;0.55;;
39094;SDS011;24840;47.508;19.376;2023-08-06T11:39:35;9.98;;;6.95;;
39094;SDS011;24840;47.508;19.376;2023-08-06T11:42:05;1.02;;;0.65;;
39094;SDS011;24840;47.508;19.376;2023-08-06T11:44:44;4.18;;;2.35;;
39094;SDS011;24840;47.508;19.376;2023-08-06T11:47:12;3.35;;;1.95;;
39094;SDS011;24840;47.508;19.376;2023-08-06T11:49:49;1.67;;;0.60;;
39094;SDS011;24840;47.508;19.376;2023-08-06T11:52:18;2.38;;;1.15;;
39094;SDS011;24840;47.508;19.376;2023-08-06T11:54:59;4.18;;;0.50;;
39094;SDS011;24840;47.508;19.376;2023-08-06T11:57:25;5.28;;;1.55;;
39094;SDS011;24840;47.508;19.376;2023-08-06T11:59:51;6.53;;;2.78;;
39094;SDS011;24840;47.508;19.376;2023-08-06T12:02:16;3.83;;;2.60;;
39094;SDS011;24840;47.508;19.376;2023-08-06T12:04:58;1.05;;;0.75;;
39094;SDS011;24840;47.508;19.376;2023-08-06T12:07:41;4.40;;;3.22;;
39094;SDS011;24840;47.508;19.376;2023-08-06T12:10:10;5.28;;;3.65;;
39094;SDS011;24840;47.508;19.376;2023-08-06T12:12:37;6.05;;;1.92;;
39094;SDS011;24840;47.508;19.376;2023-08-06T12:15:04;4.38;;;2.65;;
39094;SDS011;24840;47.508;19.376;2023-08-06T12:17:31;1.85;;;0.32;;
39094;SDS011;24840;47.508;19.376;2023-08-06T12:19:57;0.98;;;0.60;;
39094;SDS011;24840;47.508;19.376;2023-08-06T12:22:26;0.30;;;0.28;;
39094;SDS011;24840;47.508;19.376;2023-08-06T12:24:52;0.40;;;0.30;;
39094;SDS011;24840;47.508;19.376;2023-08-06T12:27:18;4.03;;;2.22;;
39094;SDS011;24840;47.508;19.376;2023-08-06T12:29:44;3.60;;;1.77;;
39094;SDS011;24840;47.508;19.376;2023-08-06T12:32:12;1.20;;;0.77;;
39094;SDS011;24840;47.508;19.376;2023-08-06T12:34:38;3.88;;;1.70;;
39094;SDS011;24840;47.508;19.376;2023-08-06T12:37:04;0.98;;;0.50;;
39094;SDS011;24840;47.508;19.376;2023-08-06T12:43:10;2.78;;;2.00;;
39094;SDS011;24840;47.508;19.376;2023-08-06T12:45:36;0.73;;;0.40;;
39094;SDS011;24840;47.508;19.376;2023-08-06T12:48:02;1.50;;;1.08;;
39094;SDS011;24840;47.508;19.376;2023-08-06T12:50:28;0.55;;;0.30;;
39094;SDS011;24840;47.508;19.376;2023-08-06T12:52:54;3.40;;;2.00;;
39094;SDS011;24840;47.508;19.376;2023-08-06T12:55:20;3.97;;;1.25;;
39094;SDS011;24840;47.508;19.376;2023-08-06T12:57:45;0.85;;;0.57;;
39094;SDS011;24840;47.508;19.376;2023-08-06T13:00:11;4.32;;;2.40;;
39094;SDS011;24840;47.508;19.376;2023-08-06T13:02:37;1.35;;;0.40;;
39094;SDS011;24840;47.508;19.376;2023-08-06T13:05:03;0.68;;;0.50;;
39094;SDS011;24840;47.508;19.376;2023-08-06T13:07:31;1.83;;;0.50;;
39094;SDS011;24840;47.508;19.376;2023-08-06T13:09:57;1.25;;;0.38;;
39094;SDS011;24840;47.508;19.376;2023-08-06T13:12:22;0.45;;;0.40;;
39094;SDS011;24840;47.508;19.376;2023-08-06T13:14:48;0.60;;;0.57;;
39094;SDS011;24840;47.508;19.376;2023-08-06T13:17:14;3.20;;;0.70;;
39094;SDS011;24840;47.508;19.376;2023-08-06T13:23:02;1.98;;;1.08;;
39094;SDS011;24840;47.508;19.376;2023-08-06T13:25:28;1.70;;;1.00;;
39094;SDS011;24840;47.508;19.376;2023-08-06T13:27:53;2.35;;;0.47;;
39094;SDS011;24840;47.508;19.376;2023-08-06T13:30:20;5.70;;;0.85;;
39094;SDS011;24840;47.508;19.376;2023-08-06T13:32:45;0.40;;;0.40;;
39094;SDS011;24840;47.508;19.376;2023-08-06T13:35:13;2.50;;;0.68;;
39094;SDS011;24840;47.508;19.376;2023-08-06T13:37:39;1.55;;;1.00;;
39094;SDS011;24840;47.508;19.376;2023-08-06T13:40:05;0.93;;;0.60;;
39094;SDS011;24840;47.508;19.376;2023-08-06T13:42:33;1.70;;;0.52;;
39094;SDS011;24840;47.508;19.376;2023-08-06T13:44:59;0.70;;;0.45;;
39094;SDS011;24840;47.508;19.376;2023-08-06T13:47:28;1.77;;;0.60;;
39094;SDS011;24840;47.508;19.376;2023-08-06T13:49:54;2.00;;;0.40;;
39094;SDS011;24840;47.508;19.376;2023-08-06T13:52:20;0.63;;;0.50;;
39094;SDS011;24840;47.508;19.376;2023-08-06T13:54:46;1.10;;;1.00;;
39094;SDS011;24840;47.508;19.376;2023-08-06T13:57:12;1.27;;;0.98;;
39094;SDS011;24840;47.508;19.376;2023-08-06T13:59:38;2.20;;;0.82;;
39094;SDS011;24840;47.508;19.376;2023-08-06T14:02:04;1.80;;;0.85;;
39094;SDS011;24840;47.508;19.376;2023-08-06T14:04:30;3.55;;;1.02;;
39094;SDS011;24840;47.508;19.376;2023-08-06T14:06:55;1.23;;;0.88;;
39094;SDS011;24840;47.508;19.376;2023-08-06T14:09:21;2.10;;;1.40;;
39094;SDS011;24840;47.508;19.376;2023-08-06T14:11:47;3.05;;;1.35;;
39094;SDS011;24840;47.508;19.376;2023-08-06T14:14:12;1.63;;;1.23;;
39094;SDS011;24840;47.508;19.376;2023-08-06T14:16:38;1.15;;;1.02;;
39094;SDS011;24840;47.508;19.376;2023-08-06T14:19:04;1.23;;;0.82;;
39094;SDS011;24840;47.508;19.376;2023-08-06T14:21:30;1.50;;;1.20;;
39094;SDS011;24840;47.508;19.376;2023-08-06T14:23:55;2.10;;;1.10;;
39094;SDS011;24840;47.508;19.376;2023-08-06T14:26:22;1.27;;;0.98;;
39094;SDS011;24840;47.508;19.376;2023-08-06T14:28:48;1.23;;;1.02;;
39094;SDS011;24840;47.508;19.376;2023-08-06T14:31:13;3.20;;;1.27;;
39094;SDS011;24840;47.508;19.376;2023-08-06T14:33:39;3.63;;;1.75;;
39094;SDS011;24840;47.508;19.376;2023-08-06T14:36:05;3.65;;;1.50;;
39094;SDS011;24840;47.508;19.376;2023-08-06T14:38:31;1.52;;;1.20;;
39094;SDS011;24840;47.508;19.376;2023-08-06T14:40:56;1.73;;;0.73;;
39094;SDS011;24840;47.508;19.376;2023-08-06T14:43:22;2.15;;;1.08;;
39094;SDS011;24840;47.508;19.376;2023-08-06T14:45:48;1.40;;;1.30;;
39094;SDS011;24840;47.508;19.376;2023-08-06T14:48:13;2.63;;;1.45;;
39094;SDS011;24840;47.508;19.376;2023-08-06T14:50:39;1.77;;;1.40;;
39094;SDS011;24840;47.508;19.376;2023-08-06T14:53:06;1.80;;;1.30;;